Time,TemperatureF,DewpointF,PressureIn,WindDirection,WindDirectionDegrees,WindSpeedMPH,WindSpeedGustMPH,Humidity,HourlyPrecipIn,Conditions,Clouds,dailyrainin,SolarRadiationWatts/m^2,SoftwareType,DateUTC
2013-05-22 00:00:00,53.0,52.0,-100.00,North,0,0.0,-999.0,95,-99.99,,,-99.99,0.000000,,2013-05-22 05:00:00,
2013-05-22 00:32:00,53.0,52.0,-100.00,North,0,0.0,-999.0,95,-99.99,,,-99.99,0.000000,,2013-05-22 05:32:00,
2013-05-22 00:42:00,53.0,52.0,-100.00,North,0,0.0,-999.0,95,-99.99,,,-99.99,0.000000,,2013-05-22 05:42:00,
2013-05-22 00:52:00,53.0,52.0,-100.00,North,0,0.0,-999.0,95,-99.99,,,-99.99,0.000000,,2013-05-22 05:52:00,
2013-05-22 01:00:00,53.0,52.0,-100.00,North,0,1.0,-999.0,96,-99.99,,,-99.99,0.000000,,2013-05-22 06:00:00,
2013-05-22 01:32:00,53.0,52.0,-100.00,North,0,1.0,-999.0,96,-99.99,,,-99.99,0.000000,,2013-05-22 06:32:00,
2013-05-22 01:42:00,53.0,52.0,-100.00,North,0,1.0,-999.0,96,-99.99,,,-99.99,0.000000,,2013-05-22 06:42:00,
2013-05-22 01:52:00,53.0,52.0,-100.00,North,0,1.0,-999.0,96,-99.99,,,-99.99,0.000000,,2013-05-22 06:52:00,
2013-05-22 02:00:00,54.0,53.0,-100.00,NE,45,1.0,-999.0,96,-99.99,,,-99.99,0.000000,,2013-05-22 07:00:00,
2013-05-22 02:32:00,54.0,53.0,-100.00,NE,45,1.0,-999.0,96,-99.99,,,-99.99,0.000000,,2013-05-22 07:32:00,
2013-05-22 02:42:00,54.0,53.0,-100.00,NE,45,1.0,-999.0,96,-99.99,,,-99.99,0.000000,,2013-05-22 07:42:00,
2013-05-22 02:53:00,54.0,53.0,-100.00,NE,45,1.0,-999.0,96,-99.99,,,-99.99,0.000000,,2013-05-22 07:53:00,
2013-05-22 03:00:00,53.0,52.0,-100.00,East,90,1.0,-999.0,97,-99.99,,,-99.99,0.000000,,2013-05-22 08:00:00,
2013-05-22 03:32:00,53.0,52.0,-100.00,East,90,1.0,-999.0,97,-99.99,,,-99.99,0.000000,,2013-05-22 08:32:00,
2013-05-22 03:42:00,53.0,52.0,-100.00,East,90,1.0,-999.0,97,-99.99,,,-99.99,0.000000,,2013-05-22 08:42:00,
2013-05-22 03:52:00,53.0,52.0,-100.00,East,90,1.0,-999.0,97,-99.99,,,-99.99,0.000000,,2013-05-22 08:52:00,
2013-05-22 04:00:00,52.0,52.0,-100.00,NNW,337,3.0,-999.0,97,-99.99,,,-99.99,0.000000,,2013-05-22 09:00:00,
2013-05-22 04:33:00,52.0,52.0,-100.00,NNW,337,3.0,-999.0,97,-99.99,,,-99.99,0.000000,,2013-05-22 09:33:00,
2013-05-22 04:42:00,52.0,52.0,-100.00,NNW,337,3.0,-999.0,97,-99.99,,,-99.99,0.000000,,2013-05-22 09:42:00,
2013-05-22 04:53:00,52.0,52.0,-100.00,NNW,337,3.0,-999.0,97,-99.99,,,-99.99,0.000000,,2013-05-22 09:53:00,
2013-05-22 05:00:00,51.0,50.0,-100.00,North,0,1.0,-999.0,97,-99.99,,,-99.99,0.000000,,2013-05-22 10:00:00,
2013-05-22 05:33:00,51.0,50.0,-100.00,North,0,1.0,-999.0,97,-99.99,,,-99.99,0.000000,,2013-05-22 10:33:00,
2013-05-22 05:42:00,51.0,50.0,-100.00,North,0,1.0,-999.0,97,-99.99,,,-99.99,0.000000,,2013-05-22 10:42:00,
2013-05-22 05:53:00,51.0,50.0,-100.00,North,0,1.0,-999.0,97,-99.99,,,-99.99,0.000000,,2013-05-22 10:53:00,
2013-05-22 06:00:00,51.0,51.0,-100.00,NE,45,0.0,-999.0,97,-99.99,,,-99.99,8.120000,,2013-05-22 11:00:00,
2013-05-22 06:32:00,51.0,51.0,-100.00,NE,45,0.0,-999.0,97,-99.99,,,-99.99,8.120000,,2013-05-22 11:32:00,
2013-05-22 06:42:00,51.0,51.0,-100.00,NE,45,0.0,-999.0,97,-99.99,,,-99.99,8.120000,,2013-05-22 11:42:00,
2013-05-22 06:52:00,51.0,51.0,-100.00,NE,45,0.0,-999.0,97,-99.99,,,-99.99,8.120000,,2013-05-22 11:52:00,
2013-05-22 07:00:00,52.0,51.0,-100.00,NNE,22,2.0,-999.0,97,-99.99,,,-99.99,40.599998,,2013-05-22 12:00:00,
2013-05-22 07:32:00,52.0,51.0,-100.00,NNE,22,2.0,-999.0,97,-99.99,,,-99.99,40.599998,,2013-05-22 12:32:00,
2013-05-22 07:42:00,52.0,51.0,-100.00,NNE,22,2.0,-999.0,97,-99.99,,,-99.99,40.599998,,2013-05-22 12:42:00,
2013-05-22 07:52:00,52.0,51.0,-100.00,NNE,22,2.0,-999.0,97,-99.99,,,-99.99,40.599998,,2013-05-22 12:52:00,
2013-05-22 09:00:00,52.0,51.0,-100.00,NNE,22,1.0,-999.0,97,-99.99,,,-99.99,92.800003,,2013-05-22 14:00:00,
2013-05-22 09:32:00,52.0,51.0,-100.00,NNE,22,1.0,-999.0,97,-99.99,,,-99.99,92.800003,,2013-05-22 14:32:00,
2013-05-22 09:42:00,52.0,51.0,-100.00,NNE,22,1.0,-999.0,97,-99.99,,,-99.99,92.800003,,2013-05-22 14:42:00,
2013-05-22 09:53:00,52.0,51.0,-100.00,NNE,22,1.0,-999.0,97,-99.99,,,-99.99,92.800003,,2013-05-22 14:53:00,
2013-05-22 10:00:00,53.0,53.0,-100.00,NNE,22,2.0,-999.0,97,-99.99,,,-99.99,238.960007,,2013-05-22 15:00:00,
2013-05-22 10:33:00,53.0,53.0,-100.00,NNE,22,2.0,-999.0,97,-99.99,,,-99.99,238.960007,,2013-05-22 15:33:00,
2013-05-22 10:43:00,53.0,53.0,-100.00,NNE,22,2.0,-999.0,97,-99.99,,,-99.99,238.960007,,2013-05-22 15:43:00,
2013-05-22 10:53:00,53.0,53.0,-100.00,NNE,22,2.0,-999.0,97,-99.99,,,-99.99,238.960007,,2013-05-22 15:53:00,
2013-05-22 11:00:00,55.0,54.0,-100.00,NNE,22,2.0,-999.0,95,-99.99,,,-99.99,198.360001,,2013-05-22 16:00:00,
2013-05-22 11:33:00,55.0,54.0,-100.00,NNE,22,2.0,-999.0,95,-99.99,,,-99.99,198.360001,,2013-05-22 16:33:00,
2013-05-22 11:42:00,55.0,54.0,-100.00,NNE,22,2.0,-999.0,95,-99.99,,,-99.99,198.360001,,2013-05-22 16:42:00,
2013-05-22 11:52:00,55.0,54.0,-100.00,NNE,22,2.0,-999.0,95,-99.99,,,-99.99,198.360001,,2013-05-22 16:52:00,
2013-05-22 12:00:00,56.0,54.0,-100.00,NNE,22,2.0,-999.0,93,-99.99,,,-99.99,136.880005,,2013-05-22 17:00:00,
2013-05-22 12:33:00,56.0,54.0,-100.00,NNE,22,2.0,-999.0,93,-99.99,,,-99.99,136.880005,,2013-05-22 17:33:00,
2013-05-22 12:42:00,56.0,54.0,-100.00,NNE,22,2.0,-999.0,93,-99.99,,,-99.99,136.880005,,2013-05-22 17:42:00,
2013-05-22 12:54:00,56.0,54.0,-100.00,NNE,22,2.0,-999.0,93,-99.99,,,-99.99,136.880005,,2013-05-22 17:54:00,
2013-05-22 13:00:00,54.0,52.0,-100.00,North,0,2.0,-999.0,93,-99.99,,,-99.99,103.239998,,2013-05-22 18:00:00,
2013-05-22 13:34:00,54.0,52.0,-100.00,North,0,2.0,-999.0,93,-99.99,,,-99.99,103.239998,,2013-05-22 18:34:00,
2013-05-22 13:42:00,54.0,52.0,-100.00,North,0,2.0,-999.0,93,-99.99,,,-99.99,103.239998,,2013-05-22 18:42:00,
2013-05-22 13:52:00,54.0,52.0,-100.00,North,0,2.0,-999.0,93,-99.99,,,-99.99,103.239998,,2013-05-22 18:52:00,
2013-05-22 14:00:00,53.0,52.0,-100.00,NNE,22,4.0,-999.0,95,0.01,,,-99.99,124.120003,,2013-05-22 19:00:00,
2013-05-22 14:32:00,53.0,52.0,-100.00,NNE,22,4.0,-999.0,95,0.01,,,-99.99,124.120003,,2013-05-22 19:32:00,
2013-05-22 14:42:00,53.0,52.0,-100.00,NNE,22,4.0,-999.0,95,0.01,,,-99.99,124.120003,,2013-05-22 19:42:00,
2013-05-22 14:52:00,53.0,52.0,-100.00,NNE,22,4.0,-999.0,95,0.01,,,-99.99,124.120003,,2013-05-22 19:52:00,
2013-05-22 15:00:00,54.0,52.0,-100.00,North,0,5.0,-999.0,95,-99.99,,,-99.99,114.839996,,2013-05-22 20:00:00,
2013-05-22 15:32:00,54.0,52.0,-100.00,North,0,5.0,-999.0,95,-99.99,,,-99.99,114.839996,,2013-05-22 20:32:00,
2013-05-22 15:42:00,54.0,52.0,-100.00,North,0,5.0,-999.0,95,-99.99,,,-99.99,114.839996,,2013-05-22 20:42:00,
2013-05-22 15:52:00,54.0,52.0,-100.00,North,0,5.0,-999.0,95,-99.99,,,-99.99,114.839996,,2013-05-22 20:52:00,
2013-05-22 16:00:00,53.0,52.0,-100.00,North,0,5.0,-999.0,94,0.01,,,-99.99,98.599998,,2013-05-22 21:00:00,
2013-05-22 16:33:00,53.0,52.0,-100.00,North,0,5.0,-999.0,94,0.01,,,-99.99,98.599998,,2013-05-22 21:33:00,
2013-05-22 16:42:00,53.0,52.0,-100.00,North,0,5.0,-999.0,94,0.01,,,-99.99,98.599998,,2013-05-22 21:42:00,
2013-05-22 16:53:00,53.0,52.0,-100.00,North,0,5.0,-999.0,94,0.01,,,-99.99,98.599998,,2013-05-22 21:53:00,
2013-05-22 18:00:00,52.0,50.0,-100.00,North,0,5.0,-999.0,93,0.01,,,-99.99,74.239998,,2013-05-22 23:00:00,
2013-05-22 18:32:00,52.0,50.0,-100.00,North,0,5.0,-999.0,93,0.01,,,-99.99,74.239998,,2013-05-22 23:32:00,
2013-05-22 18:42:00,52.0,50.0,-100.00,North,0,5.0,-999.0,93,0.01,,,-99.99,74.239998,,2013-05-22 23:42:00,
2013-05-22 18:53:00,52.0,50.0,-100.00,North,0,5.0,-999.0,93,0.01,,,-99.99,74.239998,,2013-05-22 23:53:00,
2013-05-22 20:00:00,49.0,47.0,-100.00,North,0,7.0,-999.0,95,-99.99,,,-99.99,9.280000,,2013-05-23 01:00:00,
2013-05-22 20:32:00,49.0,47.0,-100.00,North,0,7.0,-999.0,95,-99.99,,,-99.99,9.280000,,2013-05-23 01:32:00,
2013-05-22 20:42:00,49.0,47.0,-100.00,North,0,7.0,-999.0,95,-99.99,,,-99.99,9.280000,,2013-05-23 01:42:00,
2013-05-22 20:52:00,49.0,47.0,-100.00,North,0,7.0,-999.0,95,-99.99,,,-99.99,9.280000,,2013-05-23 01:52:00,
2013-05-22 21:00:00,48.0,47.0,-100.00,North,0,7.0,-999.0,96,-99.99,,,-99.99,0.000000,,2013-05-23 02:00:00,
2013-05-22 21:32:00,48.0,47.0,-100.00,North,0,7.0,-999.0,96,-99.99,,,-99.99,0.000000,,2013-05-23 02:32:00,
2013-05-22 21:42:00,48.0,47.0,-100.00,North,0,7.0,-999.0,96,-99.99,,,-99.99,0.000000,,2013-05-23 02:42:00,
2013-05-22 21:52:00,48.0,47.0,-100.00,North,0,7.0,-999.0,96,-99.99,,,-99.99,0.000000,,2013-05-23 02:52:00,
2013-05-22 22:00:00,48.0,47.0,-100.00,North,0,7.0,-999.0,96,-99.99,,,-99.99,0.000000,,2013-05-23 03:00:00,
2013-05-22 22:33:00,48.0,47.0,-100.00,North,0,7.0,-999.0,96,-99.99,,,-99.99,0.000000,,2013-05-23 03:33:00,
2013-05-22 22:43:00,48.0,47.0,-100.00,North,0,7.0,-999.0,96,-99.99,,,-99.99,0.000000,,2013-05-23 03:43:00,
2013-05-22 22:53:00,48.0,47.0,-100.00,North,0,7.0,-999.0,96,-99.99,,,-99.99,0.000000,,2013-05-23 03:53:00,
2013-05-22 23:00:00,49.0,48.0,-100.00,North,0,5.0,-999.0,96,-99.99,,,-99.99,0.000000,,2013-05-23 04:00:00,
2013-05-22 23:33:00,49.0,48.0,-100.00,North,0,5.0,-999.0,96,-99.99,,,-99.99,0.000000,,2013-05-23 04:33:00,
2013-05-22 23:43:00,49.0,48.0,-100.00,North,0,5.0,-999.0,96,-99.99,,,-99.99,0.000000,,2013-05-23 04:43:00,
2013-05-22 23:52:00,49.0,48.0,-100.00,North,0,5.0,-999.0,96,-99.99,,,-99.99,0.000000,,2013-05-23 04:52:00,